createdAt,value
2023-01-13T00:00:05.619Z,100135.25
2023-01-13T00:00:43.171Z,100137.56
2023-01-13T00:01:17.002Z,100136.16
2023-01-13T00:01:48.711Z,100134.09
2023-01-13T00:02:20.429Z,100134.41
2023-01-13T00:02:52.120Z,100132.50
2023-01-13T00:03:23.929Z,100139.13
2023-01-13T00:03:56.091Z,100138.59
2023-01-13T00:04:28.808Z,100132.13
2023-01-13T00:05:00.567Z,100133.16
2023-01-13T00:05:32.349Z,100135.28
2023-01-13T00:06:04.381Z,100127.78
2023-01-13T00:06:36.398Z,100131.16
2023-01-13T00:07:08.077Z,100130.66
2023-01-13T00:07:43.375Z,100129.31
2023-01-13T00:08:15.452Z,100136.38
2023-01-13T00:08:51.166Z,100129.69
2023-01-13T00:09:22.902Z,100133.06
2023-01-13T00:09:54.597Z,100128.19
2023-01-13T00:10:26.270Z,100132.78
2023-01-13T00:10:58.202Z,100123.84
2023-01-13T00:11:29.892Z,100133.72
2023-01-13T00:12:01.974Z,100137.56
2023-01-13T00:12:33.691Z,100126.22
2023-01-13T00:13:05.684Z,100131.00
2023-01-13T00:13:38.507Z,100129.16
2023-01-13T00:14:10.194Z,100130.34
2023-01-13T00:14:41.869Z,100128.91
2023-01-13T00:15:13.778Z,100125.66
2023-01-13T00:15:55.149Z,100130.88
2023-01-13T00:16:26.876Z,100136.97
2023-01-13T00:16:58.581Z,100135.19
2023-01-13T00:17:30.563Z,100131.34
2023-01-13T00:18:02.265Z,100132.81
2023-01-13T00:18:34.649Z,100131.56
2023-01-13T00:19:06.334Z,100132.81
2023-01-13T00:19:38.097Z,100132.81
2023-01-13T00:20:10.208Z,100138.34
2023-01-13T00:20:41.894Z,100128.13
2023-01-13T00:21:13.653Z,100131.28
2023-01-13T00:21:45.324Z,100134.50
2023-01-13T00:22:17.071Z,100129.09
2023-01-13T00:22:49.074Z,100134.47
2023-01-13T00:23:20.876Z,100136.63
2023-01-13T00:23:54.024Z,100125.22
2023-01-13T00:24:25.836Z,100131.94
2023-01-13T00:24:58.989Z,100125.69
2023-01-13T00:25:30.672Z,100130.88
2023-01-13T00:26:03.794Z,100125.72
2023-01-13T00:26:36.071Z,100127.03
2023-01-13T00:27:08.089Z,100117.84
2023-01-13T00:27:39.819Z,100112.38
2023-01-13T00:28:11.779Z,100126.31
2023-01-13T00:28:43.697Z,100123.16
2023-01-13T00:29:15.383Z,100111.31
2023-01-13T00:29:47.098Z,100120.19
2023-01-13T00:30:18.847Z,100121.53
2023-01-13T00:30:50.778Z,100114.19
2023-01-13T00:31:22.613Z,100117.38
2023-01-13T00:31:55.496Z,100117.75
2023-01-13T00:32:27.379Z,100113.91
2023-01-13T00:32:59.049Z,100113.84
2023-01-13T00:33:31.028Z,100112.66
2023-01-13T00:34:02.746Z,100119.97
2023-01-13T00:34:34.436Z,100116.94
2023-01-13T00:35:06.364Z,100112.97
2023-01-13T00:35:38.001Z,100115.50
2023-01-13T00:36:12.602Z,100125.84
2023-01-13T00:36:44.948Z,100116.06
2023-01-13T00:37:16.735Z,100124.41
2023-01-13T00:37:48.489Z,100120.66
2023-01-13T00:38:20.164Z,100115.97
2023-01-13T00:38:52.162Z,100118.59
2023-01-13T00:39:23.867Z,100123.62
2023-01-13T00:39:55.656Z,100114.87
2023-01-13T00:40:27.343Z,100105.50
2023-01-13T00:40:59.832Z,100114.87
2023-01-13T00:41:51.464Z,100118.06
2023-01-13T00:43:02.070Z,100120.47
2023-01-13T00:43:34.782Z,100115.97
2023-01-13T00:44:06.741Z,100115.84
2023-01-13T00:44:38.441Z,100116.41
2023-01-13T00:45:10.329Z,100119.22
2023-01-13T00:45:42.219Z,100124.31
2023-01-13T00:46:15.637Z,100125.37
2023-01-13T00:46:47.384Z,100120.44
2023-01-13T00:47:19.102Z,100124.41
2023-01-13T00:47:50.782Z,100123.66
2023-01-13T00:48:23.426Z,100128.53
2023-01-13T00:48:55.110Z,100125.34
2023-01-13T00:49:27.072Z,100138.00
2023-01-13T00:49:58.778Z,100125.84
2023-01-13T00:50:30.561Z,100134.94
2023-01-13T00:51:03.851Z,100133.19
2023-01-13T00:51:35.520Z,100134.50
2023-01-13T00:52:07.233Z,100135.66
2023-01-13T00:52:41.169Z,100133.56
2023-01-13T00:53:14.837Z,100141.00
2023-01-13T00:53:48.319Z,100138.19
2023-01-13T00:54:20.011Z,100140.34
2023-01-13T00:54:51.991Z,100138.34
2023-01-13T00:55:23.700Z,100139.00
2023-01-13T00:55:59.842Z,100137.12
2023-01-13T00:56:40.224Z,100134.47
2023-01-13T00:57:15.355Z,100138.47
2023-01-13T00:57:47.049Z,100137.97
2023-01-13T00:58:18.725Z,100134.12
2023-01-13T00:58:52.002Z,100135.00
2023-01-13T00:59:23.879Z,100136.91
2023-01-13T00:59:55.956Z,100130.41
2023-01-13T01:00:27.650Z,100132.88
2023-01-13T01:01:03.350Z,100132.53
2023-01-13T01:01:35.182Z,100127.03
2023-01-13T01:02:07.020Z,100127.44
2023-01-13T01:02:38.864Z,100124.56
2023-01-13T01:03:12.310Z,100127.25
2023-01-13T01:03:44.030Z,100124.22
2023-01-13T01:04:15.781Z,100123.47
2023-01-13T01:04:47.501Z,100121.19
2023-01-13T01:05:19.484Z,100125.37
2023-01-13T01:05:51.183Z,100123.34
2023-01-13T01:06:24.384Z,100131.63
2023-01-13T01:06:56.071Z,100131.38
2023-01-13T01:07:27.863Z,100120.53
2023-01-13T01:07:59.550Z,100125.37
2023-01-13T01:08:31.244Z,100128.50
2023-01-13T01:09:03.810Z,100128.56
2023-01-13T01:09:35.522Z,100120.84
2023-01-13T01:10:07.404Z,100129.91
2023-01-13T01:10:39.384Z,100122.84
2023-01-13T01:11:12.927Z,100123.41
2023-01-13T01:11:44.630Z,100124.53
2023-01-13T01:12:16.354Z,100123.72
2023-01-13T01:12:48.053Z,100127.97
2023-01-13T01:13:25.702Z,100117.28
2023-01-13T01:13:59.233Z,100122.16
2023-01-13T01:14:30.924Z,100127.75
2023-01-13T01:15:03.249Z,100119.44
2023-01-13T01:15:34.940Z,100121.06
2023-01-13T01:16:07.904Z,100125.50
2023-01-13T01:16:40.442Z,100112.06
2023-01-13T01:17:12.124Z,100118.50
2023-01-13T01:17:43.883Z,100114.00
2023-01-13T01:18:15.543Z,100114.94
2023-01-13T01:18:48.285Z,100112.13
2023-01-13T01:19:20.331Z,100109.41
2023-01-13T01:19:52.046Z,100107.94
2023-01-13T01:20:23.722Z,100108.97
2023-01-13T01:20:59.103Z,100105.75
2023-01-13T01:21:31.548Z,100110.97
2023-01-13T01:22:03.450Z,100107.72
2023-01-13T01:22:35.119Z,100102.84
2023-01-13T01:23:06.799Z,100112.31
2023-01-13T01:23:39.186Z,100104.28
2023-01-13T01:24:10.868Z,100102.00
2023-01-13T01:24:42.524Z,100103.34
2023-01-13T01:25:14.250Z,100112.59
2023-01-13T01:25:45.945Z,100100.22
2023-01-13T01:26:22.557Z,100106.31
2023-01-13T01:26:54.523Z,100105.00
2023-01-13T01:27:26.212Z,100104.16
2023-01-13T01:27:57.911Z,100097.19
2023-01-13T01:28:29.768Z,100098.66
2023-01-13T01:29:02.332Z,100096.47
2023-01-13T01:29:34.075Z,100103.50
2023-01-13T01:30:06.052Z,100095.28
2023-01-13T01:30:38.893Z,100094.53
2023-01-13T01:31:12.703Z,100085.69
2023-01-13T01:31:44.685Z,100097.31
2023-01-13T01:32:16.731Z,100091.81
2023-01-13T01:32:48.456Z,100095.56
2023-01-13T01:33:20.165Z,100091.00
2023-01-13T01:33:52.846Z,100098.66
2023-01-13T01:34:24.589Z,100094.56
2023-01-13T01:34:56.262Z,100095.72
2023-01-13T01:35:27.943Z,100095.44
2023-01-13T01:36:00.444Z,100093.59
2023-01-13T01:36:32.200Z,100093.84
2023-01-13T01:37:03.878Z,100095.75
2023-01-13T01:37:35.882Z,100094.41
2023-01-13T01:38:07.604Z,100092.13
2023-01-13T01:38:39.315Z,100089.09
2023-01-13T01:39:11.099Z,100090.34
2023-01-13T01:39:42.766Z,100089.59
2023-01-13T01:40:14.757Z,100084.16
2023-01-13T01:40:46.442Z,100087.50
2023-01-13T01:41:22.458Z,100083.22
2023-01-13T01:42:12.823Z,100088.06
2023-01-13T01:43:03.398Z,100090.97
2023-01-13T01:44:04.173Z,100088.88
2023-01-13T01:44:41.848Z,100092.00
2023-01-13T01:45:21.546Z,100083.00
2023-01-13T01:45:53.556Z,100078.00
2023-01-13T01:46:44.370Z,100082.31
2023-01-13T01:47:17.483Z,100082.31
2023-01-13T01:47:54.659Z,100083.34
2023-01-13T01:48:27.681Z,100081.50
2023-01-13T01:49:02.387Z,100091.31
2023-01-13T01:49:35.301Z,100089.66
2023-01-13T01:50:07.099Z,100087.38
2023-01-13T01:50:39.487Z,100082.41
2023-01-13T01:51:13.567Z,100088.34
2023-01-13T01:51:47.745Z,100081.94
2023-01-13T01:52:26.458Z,100087.84
2023-01-13T01:53:06.180Z,100079.84
2023-01-13T01:53:38.912Z,100089.84
2023-01-13T01:54:13.224Z,100085.25
2023-01-13T01:54:48.125Z,100083.09
2023-01-13T01:55:22.559Z,100080.87
2023-01-13T01:55:55.136Z,100069.66
2023-01-13T01:56:27.139Z,100079.09
2023-01-13T01:56:59.049Z,100081.37
2023-01-13T01:57:37.397Z,100078.50
2023-01-13T01:58:17.319Z,100072.59
2023-01-13T01:58:51.209Z,100076.47
2023-01-13T01:59:23.591Z,100078.44
2023-01-13T01:59:55.787Z,100075.25
2023-01-13T02:00:28.431Z,100072.53
2023-01-13T02:01:00.697Z,100073.94
2023-01-13T02:01:33.430Z,100079.53
2023-01-13T02:02:05.559Z,100075.78
2023-01-13T02:02:37.571Z,100075.91
2023-01-13T02:03:09.680Z,100072.53
2023-01-13T02:03:44.986Z,100074.00
2023-01-13T02:04:20.551Z,100065.75
2023-01-13T02:04:53.512Z,100076.28
2023-01-13T02:05:25.324Z,100066.72
2023-01-13T02:05:57.004Z,100070.69
2023-01-13T02:06:30.017Z,100070.19
2023-01-13T02:07:02.386Z,100071.19
2023-01-13T02:07:34.472Z,100066.41
2023-01-13T02:08:08.088Z,100070.19
2023-01-13T02:08:40.560Z,100068.78
2023-01-13T02:09:12.619Z,100070.63
2023-01-13T02:09:44.400Z,100067.75
2023-01-13T02:10:18.346Z,100076.59
2023-01-13T02:10:53.089Z,100072.09
2023-01-13T02:11:47.283Z,100065.84
2023-01-13T02:12:32.238Z,100062.31
2023-01-13T02:13:06.124Z,100064.31
2023-01-13T02:13:37.850Z,100069.09
2023-01-13T02:14:09.581Z,100067.81
2023-01-13T02:14:41.752Z,100070.03
2023-01-13T02:15:16.158Z,100065.62
2023-01-13T02:16:00.144Z,100072.69
2023-01-13T02:16:32.503Z,100069.53
2023-01-13T02:17:13.456Z,100064.59
2023-01-13T02:17:45.406Z,100066.59
2023-01-13T02:18:32.366Z,100065.84
2023-01-13T02:19:15.565Z,100067.59
2023-01-13T02:20:05.867Z,100066.28
2023-01-13T02:21:03.594Z,100066.00
2023-01-13T02:21:40.865Z,100067.81
2023-01-13T02:22:12.528Z,100068.78
2023-01-13T02:23:32.049Z,100064.94
2023-01-13T02:24:55.055Z,100067.22
2023-01-13T02:25:36.693Z,100066.41
2023-01-13T02:26:11.290Z,100060.69
2023-01-13T02:26:52.312Z,100061.69
2023-01-13T02:27:42.732Z,100065.53
2023-01-13T02:28:14.434Z,100062.53
2023-01-13T02:29:23.586Z,100065.53
2023-01-13T02:30:19.746Z,100060.69
2023-01-13T02:31:25.514Z,100057.75
2023-01-13T02:32:02.777Z,100049.91
2023-01-13T02:32:40.566Z,100058.59
2023-01-13T02:33:12.228Z,100055.34
2023-01-13T02:34:02.896Z,100053.41
2023-01-13T02:34:42.868Z,100050.37
2023-01-13T02:35:21.465Z,100057.31
2023-01-13T02:36:11.726Z,100054.88
2023-01-13T02:36:52.116Z,100050.31
2023-01-13T02:37:28.761Z,100057.50
2023-01-13T02:38:01.619Z,100051.19
2023-01-13T02:38:35.687Z,100060.38
2023-01-13T02:39:23.047Z,100053.38
2023-01-13T02:40:24.193Z,100056.63
2023-01-13T02:40:59.126Z,100053.25
2023-01-13T02:41:58.392Z,100054.03
2023-01-13T02:42:52.888Z,100053.06
2023-01-13T02:43:55.030Z,100051.38
2023-01-13T02:44:29.058Z,100054.03
2023-01-13T02:45:06.959Z,100049.56
2023-01-13T02:45:42.633Z,100050.72
2023-01-13T02:46:20.285Z,100048.22
2023-01-13T02:46:57.791Z,100050.87
2023-01-13T02:47:30.343Z,100050.97
2023-01-13T02:48:03.431Z,100042.78
2023-01-13T02:48:36.123Z,100053.09
2023-01-13T02:49:10.275Z,100049.84
2023-01-13T02:49:46.924Z,100046.47
2023-01-13T02:50:20.113Z,100050.06
2023-01-13T02:50:57.546Z,100043.87
2023-01-13T02:51:31.085Z,100041.03
2023-01-13T02:52:07.213Z,100040.19
2023-01-13T02:53:02.175Z,100043.66
2023-01-13T02:53:43.303Z,100032.81
2023-01-13T02:54:21.162Z,100033.03
2023-01-13T02:54:55.308Z,100039.22
2023-01-13T02:55:30.955Z,100038.91
2023-01-13T02:56:05.054Z,100037.78
2023-01-13T02:56:39.424Z,100038.41
2023-01-13T02:57:12.456Z,100039.22
2023-01-13T02:57:44.929Z,100039.50
2023-01-13T02:58:18.797Z,100040.75
2023-01-13T02:58:51.243Z,100036.50
2023-01-13T02:59:26.262Z,100037.34
2023-01-13T02:59:58.040Z,100039.16
2023-01-13T03:00:30.187Z,100038.19
2023-01-13T03:01:02.183Z,100038.06
2023-01-13T03:01:35.856Z,100038.50
2023-01-13T03:02:09.406Z,100040.91
2023-01-13T03:02:41.195Z,100035.38
2023-01-13T03:03:13.531Z,100043.97
2023-01-13T03:03:46.925Z,100041.44
2023-01-13T03:04:37.584Z,100043.25
2023-01-13T03:05:12.182Z,100041.34
2023-01-13T03:05:44.862Z,100038.03
2023-01-13T03:06:16.507Z,100036.31
2023-01-13T03:07:01.844Z,100031.00
2023-01-13T03:07:56.991Z,100043.69
2023-01-13T03:08:49.485Z,100030.00
2023-01-13T03:09:39.659Z,100037.19
2023-01-13T03:10:30.180Z,100034.63
2023-01-13T03:11:02.928Z,100034.06
2023-01-13T03:11:38.800Z,100031.72
2023-01-13T03:12:13.466Z,100029.34
2023-01-13T03:12:48.450Z,100033.53
2023-01-13T03:13:29.110Z,100029.19
2023-01-13T03:14:01.836Z,100025.50
2023-01-13T03:14:38.388Z,100028.50
2023-01-13T03:15:28.529Z,100026.25
2023-01-13T03:16:10.438Z,100034.00
2023-01-13T03:17:11.555Z,100032.97
2023-01-13T03:17:48.507Z,100028.38
2023-01-13T03:18:39.671Z,100019.72
2023-01-13T03:19:17.138Z,100022.00
2023-01-13T03:19:59.488Z,100017.00
2023-01-13T03:20:34.473Z,100015.53
2023-01-13T03:21:12.358Z,100022.81
2023-01-13T03:22:02.919Z,100024.09
2023-01-13T03:22:34.580Z,100020.88
2023-01-13T03:23:09.470Z,100023.41
2023-01-13T03:23:49.679Z,100020.88
2023-01-13T03:24:33.343Z,100015.25
2023-01-13T03:25:08.310Z,100016.06
2023-01-13T03:25:50.796Z,100025.06
2023-01-13T03:26:41.221Z,100019.44
2023-01-13T03:27:17.923Z,100017.34
2023-01-13T03:27:52.570Z,100020.69
2023-01-13T03:28:28.851Z,100016.78
2023-01-13T03:29:19.055Z,100012.47
2023-01-13T03:29:55.295Z,100019.56
2023-01-13T03:30:27.019Z,100022.00
2023-01-13T03:31:04.916Z,100022.81
2023-01-13T03:31:40.916Z,100016.84
2023-01-13T03:32:15.276Z,100014.09
2023-01-13T03:32:49.568Z,100015.62
2023-01-13T03:33:31.396Z,100008.16
2023-01-13T03:34:18.399Z,100013.50
2023-01-13T03:35:00.650Z,100010.09
2023-01-13T03:35:32.384Z,100018.12
2023-01-13T03:36:06.141Z,100013.94
2023-01-13T03:36:38.955Z,100015.41
2023-01-13T03:37:11.556Z,100016.69
2023-01-13T03:37:46.557Z,100018.31
2023-01-13T03:38:24.134Z,100012.47
2023-01-13T03:38:58.904Z,100021.13
2023-01-13T03:39:34.365Z,100014.03
2023-01-13T03:40:10.780Z,100014.94
2023-01-13T03:40:47.810Z,100013.87
2023-01-13T03:41:22.246Z,100005.38
2023-01-13T03:42:00.059Z,100016.44
2023-01-13T03:42:33.704Z,100003.19
2023-01-13T03:43:28.765Z,100009.94
2023-01-13T03:44:24.001Z,100007.13
2023-01-13T03:45:00.675Z,100006.13
2023-01-13T03:45:34.298Z,100008.50
2023-01-13T03:46:12.605Z,100012.28
2023-01-13T03:46:49.396Z,100008.53
2023-01-13T03:47:24.085Z,100005.94
2023-01-13T03:47:57.815Z,100015.97
2023-01-13T03:48:31.965Z,100013.31
2023-01-13T03:49:04.572Z,100006.19
2023-01-13T03:49:48.537Z,100006.19
2023-01-13T03:50:22.365Z,100018.91
2023-01-13T03:50:56.379Z,100010.44
2023-01-13T03:51:29.973Z,100001.16
2023-01-13T03:52:05.497Z,100008.09
2023-01-13T03:52:39.651Z,100003.81
2023-01-13T03:53:18.791Z,100016.56
2023-01-13T03:53:54.806Z,100012.09
2023-01-13T03:54:28.997Z,100002.44
2023-01-13T03:55:03.536Z,100012.12
2023-01-13T03:55:37.943Z,100011.03
2023-01-13T03:56:13.251Z,100010.44
2023-01-13T03:56:51.475Z,100008.16
2023-01-13T03:57:26.142Z,100010.09
2023-01-13T03:58:03.663Z,100014.00
2023-01-13T03:58:37.982Z,100008.16
2023-01-13T03:59:14.257Z,100007.50
2023-01-13T03:59:49.983Z,100007.22
2023-01-13T04:00:27.092Z,100001.41
2023-01-13T04:01:02.134Z,100006.13
2023-01-13T04:01:53.011Z,100002.22
2023-01-13T04:02:47.186Z,100006.87
2023-01-13T04:03:38.726Z,100001.78
2023-01-13T04:04:13.800Z,100008.53
2023-01-13T04:05:14.876Z,100010.44
2023-01-13T04:05:51.051Z,100009.31
2023-01-13T04:06:35.947Z,100018.66
2023-01-13T04:07:07.718Z,100013.00
2023-01-13T04:08:01.026Z,100007.34
2023-01-13T04:08:34.931Z,100004.16
2023-01-13T04:09:11.820Z,100001.81
2023-01-13T04:09:54.437Z,100008.81
2023-01-13T04:10:28.879Z,100011.22
2023-01-13T04:11:00.548Z,100002.16
2023-01-13T04:11:35.591Z,100015.81
2023-01-13T04:12:13.427Z,100004.88
2023-01-13T04:13:01.072Z,100006.13
2023-01-13T04:13:37.009Z,100008.03
2023-01-13T04:14:09.300Z,100008.34
2023-01-13T04:14:41.583Z,100006.44
2023-01-13T04:15:13.495Z,100015.56
2023-01-13T04:15:46.279Z,100010.91
2023-01-13T04:16:18.247Z,100008.88
2023-01-13T04:16:50.297Z,100007.72
2023-01-13T04:17:22.313Z,100008.16
2023-01-13T04:17:54.434Z,100009.72
2023-01-13T04:18:27.366Z,100002.78
2023-01-13T04:18:59.092Z,100010.66
2023-01-13T04:19:31.727Z,100013.97
2023-01-13T04:20:03.508Z,100021.72
2023-01-13T04:20:35.465Z,100012.38
2023-01-13T04:21:07.928Z,100014.72
2023-01-13T04:21:39.619Z,100009.56
2023-01-13T04:22:11.602Z,100021.03
2023-01-13T04:22:43.282Z,100017.53
2023-01-13T04:23:15.487Z,100014.63
2023-01-13T04:23:51.321Z,100017.38
2023-01-13T04:24:22.985Z,100009.72
2023-01-13T04:24:54.673Z,100012.09
2023-01-13T04:25:26.371Z,100016.09
2023-01-13T04:25:58.394Z,100011.41
2023-01-13T04:26:30.075Z,100012.00
2023-01-13T04:27:01.761Z,100014.44
2023-01-13T04:27:33.890Z,100016.59
2023-01-13T04:28:06.753Z,100014.72
2023-01-13T04:28:40.680Z,100013.78
2023-01-13T04:29:14.068Z,100012.88
2023-01-13T04:29:47.131Z,100011.25
2023-01-13T04:30:18.817Z,100012.38
2023-01-13T04:30:50.652Z,100013.63
2023-01-13T04:31:22.444Z,100015.75
2023-01-13T04:31:54.233Z,100014.16
2023-01-13T04:32:26.043Z,100016.41
2023-01-13T04:32:58.088Z,100022.38
2023-01-13T04:33:29.751Z,100018.03
2023-01-13T04:34:01.465Z,100020.28
2023-01-13T04:34:33.143Z,100017.44
2023-01-13T04:35:05.389Z,100016.00
2023-01-13T04:35:37.482Z,100017.22
2023-01-13T04:36:09.373Z,100011.28
2023-01-13T04:36:41.114Z,100014.19
2023-01-13T04:37:12.781Z,100022.59
2023-01-13T04:37:44.486Z,100015.78
2023-01-13T04:38:17.818Z,100022.41
2023-01-13T04:38:50.182Z,100017.44
2023-01-13T04:39:22.001Z,100016.78
2023-01-13T04:39:53.720Z,100014.88
2023-01-13T04:40:25.397Z,100021.97
2023-01-13T04:40:57.096Z,100018.09
2023-01-13T04:41:28.799Z,100022.63
2023-01-13T04:42:02.320Z,100028.91
2023-01-13T04:42:34.023Z,100019.38
2023-01-13T04:43:06.061Z,100030.34
2023-01-13T04:43:38.121Z,100017.09
2023-01-13T04:44:09.804Z,100017.09
2023-01-13T04:44:41.473Z,100026.75
2023-01-13T04:45:13.640Z,100024.41
2023-01-13T04:45:45.314Z,100030.50
2023-01-13T04:46:17.019Z,100026.97
2023-01-13T04:46:48.780Z,100029.25
2023-01-13T04:47:20.457Z,100029.63
2023-01-13T04:47:52.194Z,100024.00
2023-01-13T04:48:23.896Z,100025.62
2023-01-13T04:48:55.911Z,100024.16
2023-01-13T04:49:27.653Z,100020.56
2023-01-13T04:49:59.335Z,100025.69
2023-01-13T04:50:31.108Z,100031.31
2023-01-13T04:51:02.807Z,100029.88
2023-01-13T04:51:34.833Z,100037.50
2023-01-13T04:52:07.252Z,100029.56
2023-01-13T04:52:39.048Z,100028.28
2023-01-13T04:53:10.885Z,100019.91
2023-01-13T04:53:42.591Z,100019.44
2023-01-13T04:54:14.892Z,100019.50
2023-01-13T04:54:46.594Z,100016.25
2023-01-13T04:55:18.923Z,100023.91
2023-01-13T04:55:52.119Z,100017.97
2023-01-13T04:56:23.845Z,100017.91
2023-01-13T04:56:55.556Z,100021.47
2023-01-13T04:57:27.372Z,100026.63
2023-01-13T04:58:03.417Z,100018.75
2023-01-13T04:58:35.362Z,100027.50
2023-01-13T04:59:07.086Z,100025.62
2023-01-13T04:59:39.084Z,100023.37
2023-01-13T05:00:12.015Z,100030.94
2023-01-13T05:00:43.857Z,100028.69
2023-01-13T05:01:15.588Z,100027.75
2023-01-13T05:01:47.429Z,100021.59
2023-01-13T05:02:21.898Z,100015.62
2023-01-13T05:02:53.645Z,100024.69
2023-01-13T05:03:26.775Z,100025.62
2023-01-13T05:03:58.474Z,100019.53
2023-01-13T05:04:30.261Z,100018.56
2023-01-13T05:05:02.355Z,100024.84
2023-01-13T05:05:34.121Z,100022.44
2023-01-13T05:06:05.954Z,100023.56
2023-01-13T05:06:37.692Z,100028.13
2023-01-13T05:07:09.429Z,100028.28
2023-01-13T05:07:41.173Z,100026.91
2023-01-13T05:08:12.922Z,100024.47
2023-01-13T05:08:44.658Z,100026.63
2023-01-13T05:09:16.666Z,100025.94
2023-01-13T05:09:48.500Z,100019.28
2023-01-13T05:10:23.002Z,100028.78
2023-01-13T05:10:55.724Z,100027.03
2023-01-13T05:11:45.851Z,100024.75
2023-01-13T05:12:36.769Z,100025.69
2023-01-13T05:13:27.865Z,100026.22
2023-01-13T05:14:19.841Z,100026.22
2023-01-13T05:15:10.284Z,100023.37
2023-01-13T05:16:02.076Z,100023.16
2023-01-13T05:16:52.382Z,100028.00
2023-01-13T05:17:25.093Z,100019.56
2023-01-13T05:17:56.850Z,100021.38
2023-01-13T05:18:29.481Z,100028.03
2023-01-13T05:19:01.175Z,100024.00
2023-01-13T05:19:34.749Z,100027.53
2023-01-13T05:20:06.737Z,100032.56
2023-01-13T05:20:38.428Z,100041.94
2023-01-13T05:21:30.390Z,100025.31
2023-01-13T05:22:21.254Z,100039.03
2023-01-13T05:23:11.800Z,100025.16
2023-01-13T05:24:02.153Z,100031.91
2023-01-13T05:24:52.742Z,100029.88
2023-01-13T05:25:25.358Z,100026.34
2023-01-13T05:25:57.112Z,100024.88
2023-01-13T05:26:29.087Z,100027.28
2023-01-13T05:27:00.848Z,100026.28
2023-01-13T05:27:32.952Z,100029.88
2023-01-13T05:28:05.001Z,100027.97
2023-01-13T05:28:36.764Z,100025.38
2023-01-13T05:29:08.460Z,100019.44
2023-01-13T05:29:40.144Z,100029.19
2023-01-13T05:30:12.137Z,100028.34
2023-01-13T05:30:46.128Z,100023.53
2023-01-13T05:31:17.869Z,100024.03
2023-01-13T05:31:50.051Z,100021.00
2023-01-13T05:32:22.242Z,100027.44
2023-01-13T05:32:54.255Z,100029.84
2023-01-13T05:33:25.977Z,100024.34
2023-01-13T05:33:57.699Z,100025.16
2023-01-13T05:34:29.375Z,100038.19
2023-01-13T05:35:01.208Z,100030.50
2023-01-13T05:35:33.066Z,100029.56
2023-01-13T05:36:05.840Z,100037.63
2023-01-13T05:36:37.561Z,100038.41
2023-01-13T05:37:11.126Z,100037.37
2023-01-13T05:37:43.286Z,100038.66
2023-01-13T05:38:15.815Z,100031.66
2023-01-13T05:38:47.510Z,100029.81
2023-01-13T05:39:19.201Z,100036.25
2023-01-13T05:40:09.904Z,100031.88
2023-01-13T05:41:00.963Z,100037.47
2023-01-13T05:41:51.550Z,100031.62
2023-01-13T05:42:41.945Z,100036.47
2023-01-13T05:43:20.799Z,100034.16
2023-01-13T05:43:52.462Z,100035.06
2023-01-13T05:44:24.216Z,100033.22
2023-01-13T05:44:55.876Z,100030.78
2023-01-13T05:45:27.615Z,100039.50
2023-01-13T05:46:00.604Z,100029.84
2023-01-13T05:46:32.423Z,100040.22
2023-01-13T05:47:04.150Z,100035.38
2023-01-13T05:47:36.310Z,100039.81
2023-01-13T05:48:08.138Z,100041.75
2023-01-13T05:48:41.523Z,100042.22
2023-01-13T05:49:13.407Z,100041.44
2023-01-13T05:49:45.152Z,100036.97
2023-01-13T05:50:17.088Z,100037.28
2023-01-13T05:50:49.652Z,100042.12
2023-01-13T05:51:26.239Z,100034.56
2023-01-13T05:51:58.138Z,100040.22
2023-01-13T05:52:29.837Z,100040.31
2023-01-13T05:53:01.853Z,100041.44
2023-01-13T05:53:33.856Z,100037.59
2023-01-13T05:54:05.586Z,100051.75
2023-01-13T05:54:37.257Z,100044.75
2023-01-13T05:55:09.508Z,100046.78
2023-01-13T05:55:42.070Z,100048.38
2023-01-13T05:56:13.895Z,100042.53
2023-01-13T05:56:45.592Z,100044.16
2023-01-13T05:57:17.299Z,100042.84
2023-01-13T05:57:49.030Z,100047.69
2023-01-13T05:58:21.876Z,100045.47
2023-01-13T05:58:53.805Z,100041.06
2023-01-13T05:59:25.443Z,100041.81
2023-01-13T05:59:57.267Z,100040.84
2023-01-13T06:00:29.001Z,100047.19
2023-01-13T06:01:01.851Z,100041.69
2023-01-13T06:01:34.043Z,100039.47
2023-01-13T06:02:05.743Z,100046.91
2023-01-13T06:02:37.493Z,100044.63
2023-01-13T06:03:09.730Z,100043.75
2023-01-13T06:03:41.400Z,100047.69
2023-01-13T06:04:13.196Z,100045.03
2023-01-13T06:04:45.178Z,100046.91
2023-01-13T06:05:16.870Z,100047.78
2023-01-13T06:05:48.845Z,100047.97
2023-01-13T06:06:20.833Z,100052.59
2023-01-13T06:06:52.513Z,100048.91
2023-01-13T06:07:24.227Z,100050.72
2023-01-13T06:07:56.717Z,100047.88
2023-01-13T06:08:28.843Z,100051.25
2023-01-13T06:09:00.548Z,100047.31
2023-01-13T06:09:32.245Z,100050.03
2023-01-13T06:10:04.485Z,100049.22
2023-01-13T06:10:36.689Z,100044.37
2023-01-13T06:11:08.401Z,100047.09
2023-01-13T06:11:40.409Z,100045.84
2023-01-13T06:12:13.125Z,100047.00
2023-01-13T06:12:44.848Z,100044.97
2023-01-13T06:13:16.634Z,100053.87
2023-01-13T06:13:48.338Z,100049.81
2023-01-13T06:14:20.028Z,100052.62
2023-01-13T06:14:51.724Z,100054.09
2023-01-13T06:15:23.536Z,100048.81
2023-01-13T06:15:56.037Z,100051.03
2023-01-13T06:16:27.907Z,100055.34
2023-01-13T06:17:00.056Z,100051.19
2023-01-13T06:17:31.746Z,100049.91
2023-01-13T06:18:04.587Z,100054.47
2023-01-13T06:18:36.257Z,100053.84
2023-01-13T06:19:09.303Z,100051.91
2023-01-13T06:19:41.667Z,100049.31
2023-01-13T06:20:14.239Z,100049.97
2023-01-13T06:20:47.090Z,100049.41
2023-01-13T06:21:18.781Z,100047.63
2023-01-13T06:21:50.491Z,100049.28
2023-01-13T06:22:24.293Z,100057.84
2023-01-13T06:22:56.032Z,100051.53
2023-01-13T06:23:28.363Z,100049.28
2023-01-13T06:24:00.276Z,100048.31
2023-01-13T06:24:32.008Z,100051.09
2023-01-13T06:25:03.845Z,100044.19
2023-01-13T06:25:35.525Z,100051.00
2023-01-13T06:26:13.074Z,100048.25
2023-01-13T06:26:44.768Z,100043.25
2023-01-13T06:27:16.871Z,100047.44
2023-01-13T06:27:49.301Z,100043.25
2023-01-13T06:28:21.029Z,100045.34
2023-01-13T06:28:52.727Z,100047.78
2023-01-13T06:29:24.492Z,100048.56
2023-01-13T06:29:57.122Z,100048.09
2023-01-13T06:30:31.008Z,100051.66
2023-01-13T06:31:04.750Z,100051.50
2023-01-13T06:31:38.889Z,100048.59
2023-01-13T06:32:16.780Z,100048.13
2023-01-13T06:32:52.091Z,100048.47
2023-01-13T06:33:26.967Z,100048.91
2023-01-13T06:34:03.135Z,100046.66
2023-01-13T06:34:35.425Z,100046.75
2023-01-13T06:35:09.446Z,100047.78
2023-01-13T06:35:44.056Z,100049.09
2023-01-13T06:36:19.284Z,100045.22
2023-01-13T06:36:52.431Z,100050.25
2023-01-13T06:37:26.203Z,100044.78
2023-01-13T06:37:59.801Z,100046.91
2023-01-13T06:38:35.014Z,100049.12
2023-01-13T06:39:08.578Z,100049.59
2023-01-13T06:39:40.835Z,100043.66
2023-01-13T06:40:13.592Z,100047.53